This is the latest recevied weather packets stored in our database for station/object LZ3DJ-10. If no packets are shown the sender has not sent any weather packets the latest 10 day(s).
| Time | Temp. | Humidity | Pressure | Rain* | Wind** | Luminosity | Snow |
|---|---|---|---|---|---|---|---|
| 1787763606 | 28.33° C | 51% | 1011.4 hPa | 0 mm | 0 m/s | - | - |
| 1787762706 | 29.44° C | 47% | 1011 hPa | 0 mm | 0 m/s | - | - |
| 1787761806 | 30° C | 47% | 1010.7 hPa | 0 mm | 0 m/s | - | - |
| 1787760906 | 30° C | 47% | 1010.5 hPa | 0 mm | 0 m/s | - | - |
| 1787760005 | 31.67° C | 44% | 1010 hPa | 0 mm | 0 m/s | - | - |
| 1787759106 | 31.67° C | 45% | 1010 hPa | 0 mm | 0 m/s | - | - |
| 1787758206 | 32.22° C | 44% | 1009.7 hPa | 0 mm | 0 m/s | - | - |
| 1787757306 | 31.11° C | 45% | 1009.8 hPa | 0 mm | 0 m/s | - | - |
| 1787756406 | 31.67° C | 45% | 1009.6 hPa | 0 mm | 0 m/s | - | - |
| 1787755505 | 32.78° C | 43% | 1009.3 hPa | 0 mm | 0 m/s | - | - |
| 1787754606 | 33.33° C | 42% | 1008.9 hPa | 0 mm | 0 m/s | - | - |
| 1787753705 | 32.78° C | 43% | 1008.9 hPa | 0 mm | 0 m/s | - | - |
| 1787752806 | 36.11° C | 38% | 1008.1 hPa | 0 mm | 0 m/s | - | - |
| 1787751905 | 34.44° C | 40% | 1008.3 hPa | 0 mm | 0 m/s | - | - |
| 1787751006 | 33.33° C | 41% | 1008.4 hPa | 0 mm | 0 m/s | - | - |
| 1787750106 | 33.33° C | 41% | 1008.4 hPa | 0 mm | 0 m/s | - | - |
| 1787749206 | 35.56° C | 37% | 1007.9 hPa | 0 mm | 0 m/s | - | - |
| 1787748306 | 34.44° C | 37% | 1008.1 hPa | 0 mm | 0.89 m/s, 323° | - | - |
| 1787747406 | 35° C | 36% | 1008.1 hPa | 0 mm | 0.45 m/s, 319° | - | - |
| 1787746506 | 35.56° C | 36% | 1008.1 hPa | 0 mm | 0 m/s | - | - |
| 1787745606 | 34.44° C | 36% | 1008.4 hPa | 0 mm | 0 m/s | - | - |
| 1787744705 | 33.89° C | 37% | 1008.6 hPa | 0 mm | 0 m/s | - | - |
| 1787743806 | 32.78° C | 39% | 1008.9 hPa | 0 mm | 0.45 m/s, 323° | - | - |
| 1787742906 | 32.78° C | 38% | 1009 hPa | 0 mm | 0 m/s | - | - |
| 1787742006 | 33.89° C | 37% | 1008.9 hPa | 0 mm | 0 m/s | - | - |
* Rain latest hour (hover to see other rain measurements)
** Current wind speed in m/s (hover to see current wind gust speed)